sensor_id;sensor_type;location;lat;lon;timestamp;temperature;humidity
75705;DHT22;70013;44.726;37.760;2023-08-24T00:00:23;22.09;53.84
75705;DHT22;70013;44.726;37.760;2023-08-24T00:01:25;22.09;53.65
75705;DHT22;70013;44.726;37.760;2023-08-24T00:02:26;22.09;53.72
75705;DHT22;70013;44.726;37.760;2023-08-24T00:03:28;22.06;53.53
75705;DHT22;70013;44.726;37.760;2023-08-24T00:04:29;22.04;53.07
75705;DHT22;70013;44.726;37.760;2023-08-24T00:05:34;22.04;53.22
75705;DHT22;70013;44.726;37.760;2023-08-24T00:06:37;22.03;53.81
75705;DHT22;70013;44.726;37.760;2023-08-24T00:07:39;22.01;53.78
75705;DHT22;70013;44.726;37.760;2023-08-24T00:08:40;22.02;53.97
75705;DHT22;70013;44.726;37.760;2023-08-24T00:09:41;22.03;53.70
75705;DHT22;70013;44.726;37.760;2023-08-24T00:10:44;22.04;53.57
75705;DHT22;70013;44.726;37.760;2023-08-24T00:11:48;22.03;53.41
75705;DHT22;70013;44.726;37.760;2023-08-24T00:12:50;22.05;53.13
75705;DHT22;70013;44.726;37.760;2023-08-24T00:13:51;22.03;53.56
75705;DHT22;70013;44.726;37.760;2023-08-24T00:14:53;22.04;53.56
75705;DHT22;70013;44.726;37.760;2023-08-24T00:15:55;21.99;53.74
75705;DHT22;70013;44.726;37.760;2023-08-24T00:16:56;21.99;53.36
75705;DHT22;70013;44.726;37.760;2023-08-24T00:17:58;21.97;53.75
75705;DHT22;70013;44.726;37.760;2023-08-24T00:18:59;21.97;53.63
75705;DHT22;70013;44.726;37.760;2023-08-24T00:20:00;21.98;53.70
75705;DHT22;70013;44.726;37.760;2023-08-24T00:21:05;21.98;53.70
75705;DHT22;70013;44.726;37.760;2023-08-24T00:22:06;21.98;53.73
75705;DHT22;70013;44.726;37.760;2023-08-24T00:23:08;21.98;53.88
75705;DHT22;70013;44.726;37.760;2023-08-24T00:24:09;22.01;53.72
75705;DHT22;70013;44.726;37.760;2023-08-24T00:25:10;22.01;53.45
75705;DHT22;70013;44.726;37.760;2023-08-24T00:26:11;22.01;53.64
75705;DHT22;70013;44.726;37.760;2023-08-24T00:27:13;22.01;53.48
75705;DHT22;70013;44.726;37.760;2023-08-24T00:28:14;21.99;53.65
75705;DHT22;70013;44.726;37.760;2023-08-24T00:29:16;21.99;53.87
75705;DHT22;70013;44.726;37.760;2023-08-24T00:30:17;21.96;53.55
75705;DHT22;70013;44.726;37.760;2023-08-24T00:31:19;21.95;53.61
75705;DHT22;70013;44.726;37.760;2023-08-24T00:32:23;21.95;53.36
75705;DHT22;70013;44.726;37.760;2023-08-24T00:33:25;21.96;53.69
75705;DHT22;70013;44.726;37.760;2023-08-24T00:34:29;21.95;53.92
75705;DHT22;70013;44.726;37.760;2023-08-24T00:35:31;21.96;54.19
75705;DHT22;70013;44.726;37.760;2023-08-24T00:36:32;21.97;53.99
75705;DHT22;70013;44.726;37.760;2023-08-24T00:37:35;21.95;53.73
75705;DHT22;70013;44.726;37.760;2023-08-24T00:38:37;21.96;54.36
75705;DHT22;70013;44.726;37.760;2023-08-24T00:39:39;21.96;54.42
75705;DHT22;70013;44.726;37.760;2023-08-24T00:40:42;21.95;54.40
75705;DHT22;70013;44.726;37.760;2023-08-24T00:41:44;21.96;54.23
75705;DHT22;70013;44.726;37.760;2023-08-24T00:42:46;21.95;54.17
75705;DHT22;70013;44.726;37.760;2023-08-24T00:43:47;21.97;54.50
75705;DHT22;70013;44.726;37.760;2023-08-24T00:44:51;21.96;53.99
75705;DHT22;70013;44.726;37.760;2023-08-24T00:45:53;21.97;53.97
75705;DHT22;70013;44.726;37.760;2023-08-24T00:46:58;21.97;54.53
75705;DHT22;70013;44.726;37.760;2023-08-24T00:48:02;21.97;54.35
75705;DHT22;70013;44.726;37.760;2023-08-24T00:49:03;21.96;54.64
75705;DHT22;70013;44.726;37.760;2023-08-24T00:50:06;21.97;54.80
75705;DHT22;70013;44.726;37.760;2023-08-24T00:51:08;21.95;54.84
75705;DHT22;70013;44.726;37.760;2023-08-24T00:52:09;21.94;53.97
75705;DHT22;70013;44.726;37.760;2023-08-24T00:53:11;21.92;54.46
75705;DHT22;70013;44.726;37.760;2023-08-24T00:54:13;21.91;54.60
75705;DHT22;70013;44.726;37.760;2023-08-24T00:55:15;21.90;54.78
75705;DHT22;70013;44.726;37.760;2023-08-24T00:56:17;21.90;54.49
75705;DHT22;70013;44.726;37.760;2023-08-24T00:57:22;21.89;54.61
75705;DHT22;70013;44.726;37.760;2023-08-24T00:58:24;21.89;54.83
75705;DHT22;70013;44.726;37.760;2023-08-24T00:59:27;21.88;55.21
75705;DHT22;70013;44.726;37.760;2023-08-24T01:00:29;21.88;54.85
75705;DHT22;70013;44.726;37.760;2023-08-24T01:01:30;21.85;54.92
75705;DHT22;70013;44.726;37.760;2023-08-24T01:02:34;21.81;55.03
75705;DHT22;70013;44.726;37.760;2023-08-24T01:03:35;21.81;55.21
75705;DHT22;70013;44.726;37.760;2023-08-24T01:04:36;21.82;55.48
75705;DHT22;70013;44.726;37.760;2023-08-24T01:05:38;21.82;55.46
75705;DHT22;70013;44.726;37.760;2023-08-24T01:06:39;21.82;55.39
75705;DHT22;70013;44.726;37.760;2023-08-24T01:07:40;21.80;55.13
75705;DHT22;70013;44.726;37.760;2023-08-24T01:08:43;21.78;55.36
75705;DHT22;70013;44.726;37.760;2023-08-24T01:09:44;21.78;55.31
75705;DHT22;70013;44.726;37.760;2023-08-24T01:11:02;21.76;55.64
75705;DHT22;70013;44.726;37.760;2023-08-24T01:12:38;21.77;55.65
75705;DHT22;70013;44.726;37.760;2023-08-24T01:13:44;21.70;55.78
75705;DHT22;70013;44.726;37.760;2023-08-24T01:15:14;21.72;55.65
75705;DHT22;70013;44.726;37.760;2023-08-24T01:16:26;21.72;55.57
75705;DHT22;70013;44.726;37.760;2023-08-24T01:17:30;21.70;55.62
75705;DHT22;70013;44.726;37.760;2023-08-24T01:18:33;21.65;56.12
75705;DHT22;70013;44.726;37.760;2023-08-24T01:19:44;21.62;56.16
75705;DHT22;70013;44.726;37.760;2023-08-24T01:20:47;21.60;55.86
75705;DHT22;70013;44.726;37.760;2023-08-24T01:21:50;21.58;55.92
75705;DHT22;70013;44.726;37.760;2023-08-24T01:24:39;21.59;56.29
75705;DHT22;70013;44.726;37.760;2023-08-24T01:25:51;21.60;56.41
75705;DHT22;70013;44.726;37.760;2023-08-24T01:26:54;21.60;56.32
75705;DHT22;70013;44.726;37.760;2023-08-24T01:27:57;21.60;56.24
75705;DHT22;70013;44.726;37.760;2023-08-24T01:29:01;21.60;56.36
75705;DHT22;70013;44.726;37.760;2023-08-24T01:30:05;21.60;56.55
75705;DHT22;70013;44.726;37.760;2023-08-24T01:31:08;21.61;56.41
75705;DHT22;70013;44.726;37.760;2023-08-24T01:32:10;21.60;56.43
75705;DHT22;70013;44.726;37.760;2023-08-24T01:33:13;21.60;56.19
75705;DHT22;70013;44.726;37.760;2023-08-24T01:34:14;21.59;56.63
75705;DHT22;70013;44.726;37.760;2023-08-24T01:35:16;21.60;56.52
75705;DHT22;70013;44.726;37.760;2023-08-24T01:36:17;21.60;56.57
75705;DHT22;70013;44.726;37.760;2023-08-24T01:37:19;21.59;56.65
75705;DHT22;70013;44.726;37.760;2023-08-24T01:38:20;21.59;56.69
75705;DHT22;70013;44.726;37.760;2023-08-24T01:39:35;21.59;56.03
75705;DHT22;70013;44.726;37.760;2023-08-24T01:42:04;21.36;57.21
75705;DHT22;70013;44.726;37.760;2023-08-24T01:43:07;21.37;57.10
75705;DHT22;70013;44.726;37.760;2023-08-24T01:44:13;21.33;57.48
75705;DHT22;70013;44.726;37.760;2023-08-24T01:45:17;21.35;57.46
75705;DHT22;70013;44.726;37.760;2023-08-24T01:46:22;21.37;57.29
75705;DHT22;70013;44.726;37.760;2023-08-24T01:47:25;21.39;56.90
75705;DHT22;70013;44.726;37.760;2023-08-24T01:48:27;21.37;56.82
75705;DHT22;70013;44.726;37.760;2023-08-24T01:49:30;21.38;57.20
75705;DHT22;70013;44.726;37.760;2023-08-24T01:50:33;21.39;56.97
75705;DHT22;70013;44.726;37.760;2023-08-24T01:51:35;21.39;56.68
75705;DHT22;70013;44.726;37.760;2023-08-24T01:52:37;21.40;56.73
75705;DHT22;70013;44.726;37.760;2023-08-24T01:53:39;21.42;56.74
75705;DHT22;70013;44.726;37.760;2023-08-24T01:54:41;21.40;56.93
75705;DHT22;70013;44.726;37.760;2023-08-24T01:55:47;21.43;56.89
75705;DHT22;70013;44.726;37.760;2023-08-24T01:56:48;21.43;57.10
75705;DHT22;70013;44.726;37.760;2023-08-24T01:57:50;21.44;56.89
75705;DHT22;70013;44.726;37.760;2023-08-24T01:58:51;21.44;57.08
75705;DHT22;70013;44.726;37.760;2023-08-24T01:59:52;21.44;56.97
75705;DHT22;70013;44.726;37.760;2023-08-24T02:00:54;21.43;56.97
75705;DHT22;70013;44.726;37.760;2023-08-24T02:01:55;21.42;57.19
75705;DHT22;70013;44.726;37.760;2023-08-24T02:02:57;21.39;57.00
75705;DHT22;70013;44.726;37.760;2023-08-24T02:04:00;21.42;57.35
75705;DHT22;70013;44.726;37.760;2023-08-24T02:05:02;21.43;57.22
75705;DHT22;70013;44.726;37.760;2023-08-24T02:06:04;21.44;57.27
75705;DHT22;70013;44.726;37.760;2023-08-24T02:07:08;21.43;56.26
75705;DHT22;70013;44.726;37.760;2023-08-24T02:08:09;21.46;57.19
75705;DHT22;70013;44.726;37.760;2023-08-24T02:09:11;21.46;57.45
75705;DHT22;70013;44.726;37.760;2023-08-24T02:10:13;21.45;57.39
75705;DHT22;70013;44.726;37.760;2023-08-24T02:11:15;21.44;57.28
75705;DHT22;70013;44.726;37.760;2023-08-24T02:12:16;21.45;57.51
75705;DHT22;70013;44.726;37.760;2023-08-24T02:13:18;21.44;57.64
75705;DHT22;70013;44.726;37.760;2023-08-24T02:14:19;21.42;57.17
75705;DHT22;70013;44.726;37.760;2023-08-24T02:15:21;21.42;57.51
75705;DHT22;70013;44.726;37.760;2023-08-24T02:16:23;21.39;57.78
75705;DHT22;70013;44.726;37.760;2023-08-24T02:17:26;21.38;57.42
75705;DHT22;70013;44.726;37.760;2023-08-24T02:18:28;21.38;57.15
75705;DHT22;70013;44.726;37.760;2023-08-24T02:19:30;21.38;57.79
75705;DHT22;70013;44.726;37.760;2023-08-24T02:20:38;21.39;57.57
75705;DHT22;70013;44.726;37.760;2023-08-24T02:21:39;21.39;57.58
75705;DHT22;70013;44.726;37.760;2023-08-24T02:22:44;21.38;57.91
75705;DHT22;70013;44.726;37.760;2023-08-24T02:23:45;21.38;57.58
75705;DHT22;70013;44.726;37.760;2023-08-24T02:24:46;21.37;58.06
75705;DHT22;70013;44.726;37.760;2023-08-24T02:25:48;21.37;57.54
75705;DHT22;70013;44.726;37.760;2023-08-24T02:26:50;21.39;57.93
75705;DHT22;70013;44.726;37.760;2023-08-24T02:27:51;21.40;58.13
75705;DHT22;70013;44.726;37.760;2023-08-24T02:28:55;21.39;57.77
75705;DHT22;70013;44.726;37.760;2023-08-24T02:29:59;21.40;56.96
75705;DHT22;70013;44.726;37.760;2023-08-24T02:31:02;21.40;57.75
75705;DHT22;70013;44.726;37.760;2023-08-24T02:32:04;21.40;58.04
75705;DHT22;70013;44.726;37.760;2023-08-24T02:33:06;21.38;58.06
75705;DHT22;70013;44.726;37.760;2023-08-24T02:34:09;21.37;58.07
75705;DHT22;70013;44.726;37.760;2023-08-24T02:35:11;21.38;58.25
75705;DHT22;70013;44.726;37.760;2023-08-24T02:36:13;21.38;58.15
75705;DHT22;70013;44.726;37.760;2023-08-24T02:37:14;21.39;58.03
75705;DHT22;70013;44.726;37.760;2023-08-24T02:38:17;21.39;57.80
75705;DHT22;70013;44.726;37.760;2023-08-24T02:39:18;21.38;58.09
75705;DHT22;70013;44.726;37.760;2023-08-24T02:40:20;21.39;58.19
75705;DHT22;70013;44.726;37.760;2023-08-24T02:41:21;21.40;58.09
75705;DHT22;70013;44.726;37.760;2023-08-24T02:42:23;21.40;58.03
75705;DHT22;70013;44.726;37.760;2023-08-24T02:43:24;21.44;57.60
75705;DHT22;70013;44.726;37.760;2023-08-24T02:44:26;21.45;57.93
75705;DHT22;70013;44.726;37.760;2023-08-24T02:45:28;21.46;57.80
75705;DHT22;70013;44.726;37.760;2023-08-24T02:46:29;21.47;57.82
75705;DHT22;70013;44.726;37.760;2023-08-24T02:47:31;21.45;57.77
75705;DHT22;70013;44.726;37.760;2023-08-24T02:48:34;21.47;57.72
75705;DHT22;70013;44.726;37.760;2023-08-24T02:49:37;21.47;57.57
75705;DHT22;70013;44.726;37.760;2023-08-24T02:50:38;21.48;57.39
75705;DHT22;70013;44.726;37.760;2023-08-24T02:51:40;21.51;57.42
75705;DHT22;70013;44.726;37.760;2023-08-24T02:52:42;21.51;57.16
75705;DHT22;70013;44.726;37.760;2023-08-24T02:53:43;21.51;57.02
75705;DHT22;70013;44.726;37.760;2023-08-24T02:54:45;21.52;57.26
75705;DHT22;70013;44.726;37.760;2023-08-24T02:55:47;21.51;57.25
75705;DHT22;70013;44.726;37.760;2023-08-24T02:56:48;21.52;56.94
75705;DHT22;70013;44.726;37.760;2023-08-24T02:57:50;21.51;57.73
75705;DHT22;70013;44.726;37.760;2023-08-24T02:58:51;21.53;57.79
75705;DHT22;70013;44.726;37.760;2023-08-24T02:59:54;21.55;57.69
75705;DHT22;70013;44.726;37.760;2023-08-24T03:00:57;21.59;57.64
75705;DHT22;70013;44.726;37.760;2023-08-24T03:01:59;21.62;57.32
75705;DHT22;70013;44.726;37.760;2023-08-24T03:03:00;21.61;57.55
75705;DHT22;70013;44.726;37.760;2023-08-24T03:04:02;21.62;57.43
75705;DHT22;70013;44.726;37.760;2023-08-24T03:05:05;21.66;57.35
75705;DHT22;70013;44.726;37.760;2023-08-24T03:06:07;21.70;57.22
75705;DHT22;70013;44.726;37.760;2023-08-24T03:07:09;21.73;56.97
75705;DHT22;70013;44.726;37.760;2023-08-24T03:08:11;21.76;57.01
75705;DHT22;70013;44.726;37.760;2023-08-24T03:09:13;21.77;57.30
75705;DHT22;70013;44.726;37.760;2023-08-24T03:10:15;21.81;57.35
75705;DHT22;70013;44.726;37.760;2023-08-24T03:11:16;21.83;57.22
75705;DHT22;70013;44.726;37.760;2023-08-24T03:12:17;21.88;57.29
75705;DHT22;70013;44.726;37.760;2023-08-24T03:13:20;21.92;57.00
75705;DHT22;70013;44.726;37.760;2023-08-24T03:14:22;21.97;57.22
75705;DHT22;70013;44.726;37.760;2023-08-24T03:15:24;22.02;57.05
75705;DHT22;70013;44.726;37.760;2023-08-24T03:16:26;22.06;56.58
75705;DHT22;70013;44.726;37.760;2023-08-24T03:17:28;22.06;56.88
75705;DHT22;70013;44.726;37.760;2023-08-24T03:18:29;22.14;56.46
75705;DHT22;70013;44.726;37.760;2023-08-24T03:19:30;22.23;56.15
75705;DHT22;70013;44.726;37.760;2023-08-24T03:20:32;22.28;55.73
75705;DHT22;70013;44.726;37.760;2023-08-24T03:21:33;22.37;55.87
75705;DHT22;70013;44.726;37.760;2023-08-24T03:22:34;22.52;55.39
75705;DHT22;70013;44.726;37.760;2023-08-24T03:23:36;22.80;54.25
75705;DHT22;70013;44.726;37.760;2023-08-24T03:24:37;23.25;53.45
75705;DHT22;70013;44.726;37.760;2023-08-24T03:25:40;23.70;52.14
75705;DHT22;70013;44.726;37.760;2023-08-24T03:26:42;24.10;49.94
75705;DHT22;70013;44.726;37.760;2023-08-24T03:27:44;24.50;49.16
75705;DHT22;70013;44.726;37.760;2023-08-24T03:28:45;24.95;47.78
75705;DHT22;70013;44.726;37.760;2023-08-24T03:29:46;25.36;47.12
75705;DHT22;70013;44.726;37.760;2023-08-24T03:30:50;25.78;45.83
75705;DHT22;70013;44.726;37.760;2023-08-24T03:31:52;26.21;44.76
75705;DHT22;70013;44.726;37.760;2023-08-24T03:32:54;26.56;43.32
75705;DHT22;70013;44.726;37.760;2023-08-24T03:33:55;26.93;42.50
75705;DHT22;70013;44.726;37.760;2023-08-24T03:35:00;27.28;41.23
75705;DHT22;70013;44.726;37.760;2023-08-24T03:36:06;27.64;40.25
75705;DHT22;70013;44.726;37.760;2023-08-24T03:37:08;27.94;39.77
75705;DHT22;70013;44.726;37.760;2023-08-24T03:38:09;28.25;38.92
75705;DHT22;70013;44.726;37.760;2023-08-24T03:39:11;28.40;38.13
75705;DHT22;70013;44.726;37.760;2023-08-24T03:40:13;28.70;37.76
75705;DHT22;70013;44.726;37.760;2023-08-24T03:41:14;28.98;36.88
75705;DHT22;70013;44.726;37.760;2023-08-24T03:42:16;29.23;36.39
75705;DHT22;70013;44.726;37.760;2023-08-24T03:43:18;29.43;35.79
75705;DHT22;70013;44.726;37.760;2023-08-24T03:44:19;29.75;35.70
75705;DHT22;70013;44.726;37.760;2023-08-24T03:45:21;29.98;34.93
75705;DHT22;70013;44.726;37.760;2023-08-24T03:46:22;30.24;34.23
75705;DHT22;70013;44.726;37.760;2023-08-24T03:47:24;30.46;33.43
75705;DHT22;70013;44.726;37.760;2023-08-24T03:48:25;30.65;32.88
75705;DHT22;70013;44.726;37.760;2023-08-24T03:49:27;30.84;32.78
75705;DHT22;70013;44.726;37.760;2023-08-24T03:50:29;31.05;32.28
75705;DHT22;70013;44.726;37.760;2023-08-24T03:51:30;31.28;32.44
75705;DHT22;70013;44.726;37.760;2023-08-24T03:52:32;31.56;31.65
75705;DHT22;70013;44.726;37.760;2023-08-24T03:53:34;31.78;31.12
75705;DHT22;70013;44.726;37.760;2023-08-24T03:54:35;32.00;30.76
75705;DHT22;70013;44.726;37.760;2023-08-24T03:55:37;32.32;30.11
75705;DHT22;70013;44.726;37.760;2023-08-24T03:56:39;32.58;29.79
75705;DHT22;70013;44.726;37.760;2023-08-24T03:57:41;32.86;29.12
75705;DHT22;70013;44.726;37.760;2023-08-24T03:58:42;33.08;28.57
75705;DHT22;70013;44.726;37.760;2023-08-24T03:59:43;33.29;28.13
75705;DHT22;70013;44.726;37.760;2023-08-24T04:00:45;33.48;27.99
75705;DHT22;70013;44.726;37.760;2023-08-24T04:01:46;33.74;27.87
75705;DHT22;70013;44.726;37.760;2023-08-24T04:02:48;33.97;27.16
75705;DHT22;70013;44.726;37.760;2023-08-24T04:03:56;34.27;26.70
75705;DHT22;70013;44.726;37.760;2023-08-24T04:04:58;34.48;26.16
75705;DHT22;70013;44.726;37.760;2023-08-24T04:06:00;34.67;26.03
75705;DHT22;70013;44.726;37.760;2023-08-24T04:07:02;34.83;25.74
75705;DHT22;70013;44.726;37.760;2023-08-24T04:08:04;35.06;25.25
75705;DHT22;70013;44.726;37.760;2023-08-24T04:09:05;35.26;24.75
75705;DHT22;70013;44.726;37.760;2023-08-24T04:10:07;35.48;24.43
75705;DHT22;70013;44.726;37.760;2023-08-24T04:11:09;35.71;24.30
75705;DHT22;70013;44.726;37.760;2023-08-24T04:12:10;35.84;23.98
75705;DHT22;70013;44.726;37.760;2023-08-24T04:13:11;35.89;24.16
75705;DHT22;70013;44.726;37.760;2023-08-24T04:14:13;36.11;23.72
75705;DHT22;70013;44.726;37.760;2023-08-24T04:15:16;36.33;23.39
75705;DHT22;70013;44.726;37.760;2023-08-24T04:16:17;36.59;23.06
75705;DHT22;70013;44.726;37.760;2023-08-24T04:17:18;36.87;23.23
75705;DHT22;70013;44.726;37.760;2023-08-24T04:18:20;36.90;21.85
75705;DHT22;70013;44.726;37.760;2023-08-24T04:19:23;36.99;21.94
75705;DHT22;70013;44.726;37.760;2023-08-24T04:20:24;37.12;21.78
75705;DHT22;70013;44.726;37.760;2023-08-24T04:21:26;37.30;22.07
75705;DHT22;70013;44.726;37.760;2023-08-24T04:22:27;37.59;21.15
75705;DHT22;70013;44.726;37.760;2023-08-24T04:23:28;37.85;21.08
75705;DHT22;70013;44.726;37.760;2023-08-24T04:24:30;38.09;21.08
75705;DHT22;70013;44.726;37.760;2023-08-24T04:25:31;38.41;20.31
75705;DHT22;70013;44.726;37.760;2023-08-24T04:26:33;38.64;20.21
75705;DHT22;70013;44.726;37.760;2023-08-24T04:27:34;38.82;19.75
75705;DHT22;70013;44.726;37.760;2023-08-24T04:28:35;39.09;19.70
75705;DHT22;70013;44.726;37.760;2023-08-24T04:29:37;39.40;19.22
75705;DHT22;70013;44.726;37.760;2023-08-24T04:30:38;39.59;19.07
75705;DHT22;70013;44.726;37.760;2023-08-24T04:31:41;39.84;18.48
75705;DHT22;70013;44.726;37.760;2023-08-24T04:32:43;40.02;18.59
75705;DHT22;70013;44.726;37.760;2023-08-24T04:33:44;40.13;18.44
75705;DHT22;70013;44.726;37.760;2023-08-24T04:34:46;40.22;18.13
75705;DHT22;70013;44.726;37.760;2023-08-24T04:35:47;40.40;17.99
75705;DHT22;70013;44.726;37.760;2023-08-24T04:36:49;40.65;17.73
75705;DHT22;70013;44.726;37.760;2023-08-24T04:37:51;40.86;17.82
75705;DHT22;70013;44.726;37.760;2023-08-24T04:38:52;40.99;17.45
75705;DHT22;70013;44.726;37.760;2023-08-24T04:39:54;41.20;17.28
75705;DHT22;70013;44.726;37.760;2023-08-24T04:40:55;41.42;17.23
75705;DHT22;70013;44.726;37.760;2023-08-24T04:41:57;41.61;16.96
75705;DHT22;70013;44.726;37.760;2023-08-24T04:42:59;41.80;16.80
75705;DHT22;70013;44.726;37.760;2023-08-24T04:44:01;42.00;16.44
75705;DHT22;70013;44.726;37.760;2023-08-24T04:45:02;42.25;16.15
75705;DHT22;70013;44.726;37.760;2023-08-24T04:46:04;42.45;16.49
75705;DHT22;70013;44.726;37.760;2023-08-24T04:47:05;42.80;15.62
75705;DHT22;70013;44.726;37.760;2023-08-24T04:48:07;43.04;15.40
75705;DHT22;70013;44.726;37.760;2023-08-24T04:49:08;43.22;15.03
75705;DHT22;70013;44.726;37.760;2023-08-24T04:50:10;43.44;14.97
75705;DHT22;70013;44.726;37.760;2023-08-24T04:51:11;43.69;14.90
75705;DHT22;70013;44.726;37.760;2023-08-24T04:52:13;43.90;14.64
75705;DHT22;70013;44.726;37.760;2023-08-24T04:53:16;44.12;14.48
75705;DHT22;70013;44.726;37.760;2023-08-24T04:54:17;44.24;14.44
75705;DHT22;70013;44.726;37.760;2023-08-24T04:55:19;44.38;14.41
75705;DHT22;70013;44.726;37.760;2023-08-24T04:56:20;44.52;14.14
75705;DHT22;70013;44.726;37.760;2023-08-24T04:57:22;44.60;14.04
75705;DHT22;70013;44.726;37.760;2023-08-24T04:58:23;44.83;13.90
75705;DHT22;70013;44.726;37.760;2023-08-24T04:59:25;44.95;13.76
75705;DHT22;70013;44.726;37.760;2023-08-24T05:00:27;44.87;13.78
75705;DHT22;70013;44.726;37.760;2023-08-24T05:01:28;44.85;13.82
75705;DHT22;70013;44.726;37.760;2023-08-24T05:02:32;44.85;13.72
75705;DHT22;70013;44.726;37.760;2023-08-24T05:03:33;44.96;13.29
75705;DHT22;70013;44.726;37.760;2023-08-24T05:04:35;45.14;13.65
75705;DHT22;70013;44.726;37.760;2023-08-24T05:05:36;45.54;12.81
75705;DHT22;70013;44.726;37.760;2023-08-24T05:06:39;45.83;12.91
75705;DHT22;70013;44.726;37.760;2023-08-24T05:07:40;46.05;12.31
75705;DHT22;70013;44.726;37.760;2023-08-24T05:08:41;46.05;12.33
75705;DHT22;70013;44.726;37.760;2023-08-24T05:09:43;46.18;12.20
75705;DHT22;70013;44.726;37.760;2023-08-24T05:10:44;46.38;11.88
75705;DHT22;70013;44.726;37.760;2023-08-24T05:11:46;46.49;12.41
75705;DHT22;70013;44.726;37.760;2023-08-24T05:12:48;46.75;11.48
75705;DHT22;70013;44.726;37.760;2023-08-24T05:13:49;46.84;11.23
75705;DHT22;70013;44.726;37.760;2023-08-24T05:14:50;47.01;11.20
75705;DHT22;70013;44.726;37.760;2023-08-24T05:15:52;47.18;11.25
75705;DHT22;70013;44.726;37.760;2023-08-24T05:16:53;47.39;10.98
75705;DHT22;70013;44.726;37.760;2023-08-24T05:17:55;47.52;10.81
75705;DHT22;70013;44.726;37.760;2023-08-24T05:18:57;47.72;10.60
75705;DHT22;70013;44.726;37.760;2023-08-24T05:19:58;47.92;10.21
75705;DHT22;70013;44.726;37.760;2023-08-24T05:21:00;47.92;10.27
75705;DHT22;70013;44.726;37.760;2023-08-24T05:22:01;48.00;10.15
75705;DHT22;70013;44.726;37.760;2023-08-24T05:23:03;48.21;10.20
75705;DHT22;70013;44.726;37.760;2023-08-24T05:24:05;48.37;9.85
75705;DHT22;70013;44.726;37.760;2023-08-24T05:25:06;48.52;9.75
75705;DHT22;70013;44.726;37.760;2023-08-24T05:26:08;48.52;9.51
75705;DHT22;70013;44.726;37.760;2023-08-24T05:27:09;48.39;9.63
75705;DHT22;70013;44.726;37.760;2023-08-24T05:28:10;47.94;10.00
75705;DHT22;70013;44.726;37.760;2023-08-24T05:29:12;47.95;10.20
75705;DHT22;70013;44.726;37.760;2023-08-24T05:30:13;48.17;10.09
75705;DHT22;70013;44.726;37.760;2023-08-24T05:31:15;48.03;10.35
75705;DHT22;70013;44.726;37.760;2023-08-24T05:32:16;48.42;10.03
75705;DHT22;70013;44.726;37.760;2023-08-24T05:33:18;48.39;9.79
75705;DHT22;70013;44.726;37.760;2023-08-24T05:34:19;48.27;9.80
75705;DHT22;70013;44.726;37.760;2023-08-24T05:35:20;48.69;9.46
75705;DHT22;70013;44.726;37.760;2023-08-24T05:36:23;48.84;9.39
75705;DHT22;70013;44.726;37.760;2023-08-24T05:37:25;49.04;9.19
75705;DHT22;70013;44.726;37.760;2023-08-24T05:38:26;49.24;9.38
75705;DHT22;70013;44.726;37.760;2023-08-24T05:39:28;49.45;8.80
75705;DHT22;70013;44.726;37.760;2023-08-24T05:40:29;49.41;8.65
75705;DHT22;70013;44.726;37.760;2023-08-24T05:41:31;49.62;8.85
75705;DHT22;70013;44.726;37.760;2023-08-24T05:42:32;49.84;8.55
75705;DHT22;70013;44.726;37.760;2023-08-24T05:43:34;50.07;8.29
75705;DHT22;70013;44.726;37.760;2023-08-24T05:44:35;50.21;8.34
75705;DHT22;70013;44.726;37.760;2023-08-24T05:45:37;50.45;8.11
75705;DHT22;70013;44.726;37.760;2023-08-24T05:46:40;50.54;9.00
75705;DHT22;70013;44.726;37.760;2023-08-24T05:47:41;50.79;8.17
75705;DHT22;70013;44.726;37.760;2023-08-24T05:48:43;50.92;7.83
75705;DHT22;70013;44.726;37.760;2023-08-24T05:49:45;51.08;7.86
75705;DHT22;70013;44.726;37.760;2023-08-24T05:50:46;51.07;7.78
75705;DHT22;70013;44.726;37.760;2023-08-24T05:51:49;51.36;8.29
75705;DHT22;70013;44.726;37.760;2023-08-24T05:52:51;51.38;7.62
75705;DHT22;70013;44.726;37.760;2023-08-24T05:53:53;51.45;7.78
75705;DHT22;70013;44.726;37.760;2023-08-24T05:54:56;51.55;7.90
75705;DHT22;70013;44.726;37.760;2023-08-24T05:55:58;51.60;7.68
75705;DHT22;70013;44.726;37.760;2023-08-24T05:56:59;51.54;7.28
75705;DHT22;70013;44.726;37.760;2023-08-24T05:58:01;51.07;7.28
75705;DHT22;70013;44.726;37.760;2023-08-24T05:59:03;50.74;7.69
75705;DHT22;70013;44.726;37.760;2023-08-24T06:00:04;49.97;8.18
75705;DHT22;70013;44.726;37.760;2023-08-24T06:01:13;49.40;8.82
75705;DHT22;70013;44.726;37.760;2023-08-24T06:02:15;48.95;9.21
75705;DHT22;70013;44.726;37.760;2023-08-24T06:03:16;48.35;10.69
75705;DHT22;70013;44.726;37.760;2023-08-24T06:04:17;48.74;9.66
75705;DHT22;70013;44.726;37.760;2023-08-24T06:05:19;49.12;9.89
75705;DHT22;70013;44.726;37.760;2023-08-24T06:06:20;49.19;9.70
75705;DHT22;70013;44.726;37.760;2023-08-24T06:07:22;49.65;9.19
75705;DHT22;70013;44.726;37.760;2023-08-24T06:08:23;50.04;8.52
75705;DHT22;70013;44.726;37.760;2023-08-24T06:09:25;50.09;8.67
75705;DHT22;70013;44.726;37.760;2023-08-24T06:10:27;50.43;8.50
75705;DHT22;70013;44.726;37.760;2023-08-24T06:11:28;50.83;8.11
75705;DHT22;70013;44.726;37.760;2023-08-24T06:12:30;51.05;7.85
75705;DHT22;70013;44.726;37.760;2023-08-24T06:13:31;51.22;7.73
75705;DHT22;70013;44.726;37.760;2023-08-24T06:14:32;51.40;7.16
75705;DHT22;70013;44.726;37.760;2023-08-24T06:15:34;51.49;6.86
75705;DHT22;70013;44.726;37.760;2023-08-24T06:16:35;51.47;6.96
75705;DHT22;70013;44.726;37.760;2023-08-24T06:17:37;51.43;6.99
75705;DHT22;70013;44.726;37.760;2023-08-24T06:18:38;51.35;7.06
75705;DHT22;70013;44.726;37.760;2023-08-24T06:19:39;51.21;6.70
75705;DHT22;70013;44.726;37.760;2023-08-24T06:20:41;50.74;7.20
75705;DHT22;70013;44.726;37.760;2023-08-24T06:21:43;50.54;8.04
75705;DHT22;70013;44.726;37.760;2023-08-24T06:22:44;50.20;7.46
75705;DHT22;70013;44.726;37.760;2023-08-24T06:23:46;50.05;7.99
75705;DHT22;70013;44.726;37.760;2023-08-24T06:24:48;50.16;8.80
75705;DHT22;70013;44.726;37.760;2023-08-24T06:25:50;49.02;8.62
75705;DHT22;70013;44.726;37.760;2023-08-24T06:26:52;48.50;9.11
75705;DHT22;70013;44.726;37.760;2023-08-24T06:27:53;47.84;9.85
75705;DHT22;70013;44.726;37.760;2023-08-24T06:28:55;46.69;10.46
75705;DHT22;70013;44.726;37.760;2023-08-24T06:29:57;46.57;10.72
75705;DHT22;70013;44.726;37.760;2023-08-24T06:30:59;46.84;10.53